createdAt,value
2022-08-26T00:01:42.079Z,58.50
2022-08-26T00:04:12.878Z,63.67
2022-08-26T00:06:42.718Z,67.20
2022-08-26T00:09:15.992Z,66.40
2022-08-26T00:11:44.464Z,59.58
2022-08-26T00:14:13.968Z,64.57
2022-08-26T00:16:47.616Z,62.05
2022-08-26T00:19:18.293Z,65.72
2022-08-26T00:21:48.526Z,67.15
2022-08-26T00:24:18.158Z,63.40
2022-08-26T00:26:45.249Z,61.45
2022-08-26T00:29:13.139Z,63.03
2022-08-26T00:31:40.864Z,61.13
2022-08-26T00:34:09.633Z,54.38
2022-08-26T00:36:39.685Z,60.05
2022-08-26T00:39:08.731Z,57.90
2022-08-26T00:41:38.898Z,62.92
2022-08-26T00:44:07.519Z,67.10
2022-08-26T00:46:39.810Z,69.18
2022-08-26T00:49:22.693Z,72.77
2022-08-26T00:51:52.625Z,67.65
2022-08-26T00:57:16.541Z,65.35
2022-08-26T00:59:49.450Z,68.50
2022-08-26T01:02:20.199Z,65.95
2022-08-26T01:04:55.459Z,76.78
2022-08-26T01:07:26.199Z,69.70
2022-08-26T01:09:56.141Z,61.55
2022-08-26T01:12:25.302Z,67.78
2022-08-26T01:14:53.311Z,63.08
2022-08-26T01:17:20.156Z,67.03
2022-08-26T01:19:53.413Z,60.20
2022-08-26T01:22:31.485Z,64.63
2022-08-26T01:25:00.829Z,65.78
2022-08-26T01:27:33.622Z,70.10
2022-08-26T01:30:02.197Z,71.90
2022-08-26T01:32:32.963Z,68.05
2022-08-26T01:35:01.110Z,65.40
2022-08-26T01:37:34.891Z,71.53
2022-08-26T01:40:02.736Z,75.40
2022-08-26T01:42:29.923Z,72.50
2022-08-26T01:45:10.436Z,68.13
2022-08-26T01:47:38.864Z,68.35
2022-08-26T01:50:13.366Z,65.18
2022-08-26T01:52:51.641Z,63.55
2022-08-26T01:55:32.892Z,69.60
2022-08-26T01:58:05.436Z,64.28
2022-08-26T02:00:33.658Z,66.40
2022-08-26T02:03:21.140Z,61.90
2022-08-26T02:06:05.285Z,63.95
2022-08-26T02:08:46.927Z,68.78
2022-08-26T02:11:14.828Z,71.38
2022-08-26T02:13:48.907Z,76.72
2022-08-26T02:16:19.601Z,66.38
2022-08-26T02:18:47.605Z,74.55
2022-08-26T02:21:14.800Z,71.05
2022-08-26T02:23:42.726Z,73.03
2022-08-26T02:26:17.090Z,75.30
2022-08-26T02:28:51.314Z,75.75
2022-08-26T02:31:18.306Z,79.53
2022-08-26T02:33:45.179Z,78.50
2022-08-26T02:36:13.461Z,79.00
2022-08-26T02:38:43.174Z,74.43
2022-08-26T02:41:11.241Z,78.60
2022-08-26T02:43:38.508Z,78.32
2022-08-26T02:46:06.006Z,71.30
2022-08-26T02:48:33.432Z,71.60
2022-08-26T02:51:01.940Z,84.00
2022-08-26T02:53:31.761Z,77.57
2022-08-26T02:55:59.064Z,106.88
2022-08-26T02:58:27.352Z,89.35
2022-08-26T03:00:54.180Z,79.93
2022-08-26T03:03:22.549Z,88.90
2022-08-26T03:05:52.024Z,96.57
2022-08-26T03:08:20.022Z,103.72
2022-08-26T03:10:47.651Z,106.68
2022-08-26T03:13:15.796Z,116.80
2022-08-26T03:15:42.629Z,127.35
2022-08-26T03:18:11.112Z,123.90
2022-08-26T03:20:38.818Z,123.22
2022-08-26T03:23:05.646Z,121.90
2022-08-26T03:25:33.969Z,121.20
2022-08-26T03:28:02.493Z,126.03
2022-08-26T03:30:45.318Z,122.93
2022-08-26T03:33:14.226Z,123.68
2022-08-26T03:35:43.563Z,119.05
2022-08-26T03:38:11.238Z,124.22
2022-08-26T03:40:39.180Z,123.20
2022-08-26T03:43:09.727Z,112.55
2022-08-26T03:45:38.273Z,118.97
2022-08-26T03:48:05.722Z,115.25
2022-08-26T03:50:34.202Z,115.65
2022-08-26T03:53:03.696Z,106.82
2022-08-26T03:55:32.661Z,124.32
2022-08-26T03:58:00.843Z,113.70
2022-08-26T04:00:28.873Z,111.53
2022-08-26T04:02:56.138Z,113.88
2022-08-26T04:05:24.446Z,112.25
2022-08-26T04:07:52.392Z,102.88
2022-08-26T04:10:28.758Z,102.05
2022-08-26T04:12:59.326Z,100.00
2022-08-26T04:15:27.563Z,101.53
2022-08-26T04:17:55.818Z,110.40
2022-08-26T04:20:22.987Z,106.80
2022-08-26T04:22:51.146Z,97.60
2022-08-26T04:25:18.811Z,103.47
2022-08-26T04:30:16.716Z,105.18
2022-08-26T04:32:44.303Z,100.40
2022-08-26T04:35:11.572Z,99.28
2022-08-26T04:37:39.002Z,104.22
2022-08-26T04:40:10.927Z,100.75
2022-08-26T04:42:38.307Z,97.07
2022-08-26T04:45:10.323Z,90.22
2022-08-26T04:47:38.095Z,94.45
2022-08-26T04:50:07.494Z,90.18
2022-08-26T04:52:36.280Z,94.93
2022-08-26T04:55:06.658Z,91.25
2022-08-26T04:57:37.345Z,89.78
2022-08-26T05:00:07.034Z,90.75
2022-08-26T05:02:34.405Z,88.45
2022-08-26T05:05:01.692Z,87.70
2022-08-26T05:07:31.417Z,89.38
2022-08-26T05:09:58.678Z,79.15
2022-08-26T05:12:25.962Z,81.00
2022-08-26T05:14:53.698Z,91.05
2022-08-26T05:17:20.678Z,77.45
2022-08-26T05:19:48.106Z,88.32
2022-08-26T05:24:46.552Z,82.50
2022-08-26T05:27:16.187Z,79.45
2022-08-26T05:29:44.697Z,86.28
2022-08-26T05:32:11.897Z,81.25
2022-08-26T05:34:39.344Z,72.15
2022-08-26T05:37:10.867Z,72.47
2022-08-26T05:39:41.261Z,73.22
2022-08-26T05:42:10.392Z,70.40
2022-08-26T05:44:53.603Z,58.25
2022-08-26T05:47:21.311Z,58.38
2022-08-26T05:49:51.607Z,55.17
2022-08-26T05:52:19.844Z,53.05
2022-08-26T05:54:47.646Z,53.92
2022-08-26T05:57:14.880Z,50.28
2022-08-26T05:59:41.753Z,52.45
2022-08-26T06:02:09.365Z,49.85
2022-08-26T06:04:36.331Z,59.63
2022-08-26T06:07:03.528Z,54.10
2022-08-26T06:09:33.098Z,49.42
2022-08-26T06:12:01.848Z,44.10
2022-08-26T06:14:30.630Z,50.70
2022-08-26T06:16:57.855Z,53.05
2022-08-26T06:19:24.740Z,48.95
2022-08-26T06:21:54.130Z,47.10
2022-08-26T06:24:40.379Z,48.47
2022-08-26T06:27:11.418Z,44.60
2022-08-26T06:29:38.734Z,44.17
2022-08-26T06:32:06.822Z,48.17
2022-08-26T06:34:34.453Z,43.38
2022-08-26T06:37:06.401Z,43.83
2022-08-26T06:39:33.898Z,42.40
2022-08-26T06:42:02.660Z,40.13
2022-08-26T06:44:34.014Z,39.33
2022-08-26T06:47:01.032Z,43.85
2022-08-26T06:49:28.137Z,39.10
2022-08-26T06:51:58.940Z,36.92
2022-08-26T06:54:28.779Z,40.30
2022-08-26T06:56:57.536Z,36.28
2022-08-26T06:59:25.590Z,44.53
2022-08-26T07:01:53.320Z,41.22
2022-08-26T07:04:23.189Z,36.88
2022-08-26T07:06:53.620Z,38.05
2022-08-26T07:09:27.398Z,35.95
2022-08-26T07:11:56.914Z,31.83
2022-08-26T07:16:54.231Z,34.78
2022-08-26T07:19:29.791Z,33.03
2022-08-26T07:22:05.462Z,34.25
2022-08-26T07:24:36.707Z,28.33
2022-08-26T07:27:07.253Z,25.75
2022-08-26T07:29:37.928Z,28.45
2022-08-26T07:34:35.039Z,27.70
2022-08-26T07:37:02.208Z,29.67
2022-08-26T07:39:31.516Z,23.90
2022-08-26T07:42:07.369Z,22.05
2022-08-26T07:44:37.822Z,28.95
2022-08-26T07:47:10.088Z,20.30
2022-08-26T07:49:52.844Z,26.25
2022-08-26T07:52:25.924Z,30.23
2022-08-26T07:54:55.721Z,31.27
2022-08-26T07:57:24.112Z,25.38
2022-08-26T07:59:52.003Z,21.03
2022-08-26T08:02:24.795Z,23.20
2022-08-26T08:04:52.497Z,24.13
2022-08-26T08:07:19.544Z,24.85
2022-08-26T08:09:49.729Z,22.48
2022-08-26T08:12:18.313Z,21.98
2022-08-26T08:14:49.022Z,21.80
2022-08-26T08:17:16.467Z,27.38
2022-08-26T08:19:43.413Z,25.08
2022-08-26T08:22:17.254Z,18.42
2022-08-26T08:24:49.846Z,21.92
2022-08-26T08:27:23.746Z,18.23
2022-08-26T08:29:54.969Z,13.38
2022-08-26T08:32:23.493Z,13.95
2022-08-26T08:34:50.828Z,16.17
2022-08-26T08:37:17.900Z,14.23
2022-08-26T08:39:45.046Z,18.45
2022-08-26T08:42:34.702Z,14.00
2022-08-26T08:45:10.698Z,16.67
2022-08-26T08:47:58.630Z,17.30
2022-08-26T08:50:35.569Z,17.20
2022-08-26T08:53:11.154Z,17.63
2022-08-26T08:55:53.107Z,17.25
2022-08-26T08:58:24.917Z,19.60
2022-08-26T09:01:00.704Z,18.63
2022-08-26T09:03:32.551Z,17.35
2022-08-26T09:06:01.802Z,18.75
2022-08-26T09:08:35.840Z,19.05
2022-08-26T09:11:04.484Z,20.38
2022-08-26T09:13:31.979Z,18.02
2022-08-26T09:16:01.908Z,16.55
2022-08-26T09:18:54.175Z,17.77
2022-08-26T09:21:25.199Z,27.25
2022-08-26T09:23:56.127Z,16.88
2022-08-26T09:26:29.218Z,19.35
2022-08-26T09:29:00.856Z,19.80
2022-08-26T09:31:31.193Z,17.95
2022-08-26T09:34:17.427Z,20.40
2022-08-26T09:36:50.325Z,14.88
2022-08-26T09:39:37.985Z,15.68
2022-08-26T09:42:22.556Z,17.63
2022-08-26T09:45:00.414Z,15.88
2022-08-26T09:47:39.161Z,17.75
2022-08-26T09:50:29.059Z,19.25
2022-08-26T09:53:17.059Z,14.93
2022-08-26T09:55:55.209Z,15.23
2022-08-26T09:58:32.809Z,16.70
2022-08-26T10:01:03.202Z,16.48
2022-08-26T10:03:33.567Z,14.27
2022-08-26T10:06:02.433Z,13.23
2022-08-26T10:08:41.910Z,14.13
2022-08-26T10:11:25.127Z,14.27
2022-08-26T10:13:58.113Z,14.07
2022-08-26T10:16:30.102Z,18.90
2022-08-26T10:19:44.696Z,14.27
2022-08-26T10:22:30.677Z,18.05
2022-08-26T10:25:02.770Z,12.82
2022-08-26T10:27:52.912Z,11.82
2022-08-26T10:30:25.911Z,13.93
2022-08-26T10:33:03.779Z,14.30
2022-08-26T10:35:32.774Z,11.73
2022-08-26T10:38:07.777Z,11.73
2022-08-26T10:41:10.484Z,13.73
2022-08-26T10:43:45.256Z,15.70
2022-08-26T10:46:22.480Z,13.32
2022-08-26T10:49:06.897Z,12.55
2022-08-26T10:51:42.244Z,10.38
2022-08-26T10:54:39.669Z,12.98
2022-08-26T10:57:22.453Z,13.02
2022-08-26T11:00:32.506Z,11.85
2022-08-26T11:03:21.827Z,11.63
2022-08-26T11:06:19.000Z,17.50
2022-08-26T11:08:48.529Z,13.77
2022-08-26T11:11:41.709Z,11.32
2022-08-26T11:14:28.645Z,12.15
2022-08-26T11:16:59.014Z,11.03
2022-08-26T11:19:57.087Z,10.43
2022-08-26T11:22:31.065Z,11.13
2022-08-26T11:24:57.848Z,11.18
2022-08-26T11:27:37.307Z,11.98
2022-08-26T11:30:13.972Z,10.00
2022-08-26T11:32:40.833Z,11.98
2022-08-26T11:35:09.900Z,13.05
2022-08-26T11:37:40.644Z,12.07
2022-08-26T11:40:10.187Z,10.20
2022-08-26T11:42:49.239Z,13.25
2022-08-26T11:47:49.419Z,10.95
2022-08-26T11:50:26.184Z,12.50
2022-08-26T11:52:53.116Z,11.95
2022-08-26T11:55:20.281Z,9.27
2022-08-26T11:57:54.527Z,9.55
2022-08-26T12:00:26.524Z,16.05
2022-08-26T12:02:55.370Z,11.73
2022-08-26T12:08:16.790Z,12.35
2022-08-26T12:10:43.929Z,14.93
2022-08-26T12:13:22.094Z,14.63
2022-08-26T12:15:58.106Z,12.98
2022-08-26T12:18:30.164Z,14.75
2022-08-26T12:21:00.539Z,13.65
2022-08-26T12:23:36.825Z,16.13
2022-08-26T12:26:25.514Z,12.85
2022-08-26T12:28:59.327Z,15.50
2022-08-26T12:31:44.054Z,12.48
2022-08-26T12:34:18.449Z,10.50
2022-08-26T12:36:48.677Z,12.65
2022-08-26T12:39:24.335Z,13.18
2022-08-26T12:41:58.209Z,11.40
2022-08-26T12:44:53.725Z,14.73
2022-08-26T12:47:42.246Z,13.38
2022-08-26T12:50:30.709Z,14.55
2022-08-26T12:52:57.883Z,12.50
2022-08-26T12:55:29.041Z,12.18
2022-08-26T12:58:14.212Z,10.15
2022-08-26T13:00:48.847Z,11.43
2022-08-26T13:03:35.437Z,12.85
2022-08-26T13:06:30.037Z,13.20
2022-08-26T13:09:24.637Z,11.60
2022-08-26T13:11:53.182Z,15.13
2022-08-26T13:14:24.648Z,19.13
2022-08-26T13:16:52.934Z,14.75
2022-08-26T13:19:26.901Z,13.45
2022-08-26T13:21:57.642Z,15.52
2022-08-26T13:24:35.438Z,15.75
2022-08-26T13:27:04.092Z,17.17
2022-08-26T13:29:31.847Z,13.63
2022-08-26T13:31:59.708Z,13.32
2022-08-26T13:34:27.288Z,14.23
2022-08-26T13:36:56.370Z,14.80
2022-08-26T13:39:23.871Z,12.07
2022-08-26T13:41:52.196Z,12.10
2022-08-26T13:44:19.676Z,17.90
2022-08-26T13:46:47.107Z,12.80
2022-08-26T13:49:14.745Z,15.02
2022-08-26T13:51:42.009Z,11.80
2022-08-26T13:54:09.633Z,13.50
2022-08-26T13:56:37.555Z,10.68
2022-08-26T13:59:05.602Z,12.57
2022-08-26T14:01:34.983Z,15.63
2022-08-26T14:04:03.166Z,12.70
2022-08-26T14:06:30.336Z,14.97
2022-08-26T14:08:57.940Z,10.88
2022-08-26T14:11:25.185Z,14.57
2022-08-26T14:13:52.447Z,11.98
2022-08-26T14:16:29.410Z,13.65
2022-08-26T14:18:56.434Z,14.63
2022-08-26T14:21:25.032Z,12.32
2022-08-26T14:23:52.637Z,11.45
2022-08-26T14:26:28.840Z,18.80
2022-08-26T14:28:58.314Z,13.40
2022-08-26T14:31:27.064Z,9.98
2022-08-26T14:33:56.700Z,12.52
2022-08-26T14:36:31.259Z,13.23
2022-08-26T14:39:12.770Z,17.25
2022-08-26T14:41:55.007Z,12.02
2022-08-26T14:44:26.058Z,12.00
2022-08-26T14:46:54.641Z,13.75
2022-08-26T14:49:23.494Z,14.20
2022-08-26T14:51:50.552Z,11.18
2022-08-26T14:54:18.651Z,16.55
2022-08-26T14:56:54.175Z,13.88
2022-08-26T14:59:25.536Z,13.45
2022-08-26T15:01:53.657Z,12.30
2022-08-26T15:04:21.298Z,15.88
2022-08-26T15:06:48.879Z,10.32
2022-08-26T15:09:16.867Z,13.70
2022-08-26T15:11:44.701Z,14.38
2022-08-26T15:14:19.712Z,10.30
2022-08-26T15:16:52.053Z,12.50
2022-08-26T15:19:19.795Z,14.85
2022-08-26T15:21:51.084Z,13.35
2022-08-26T15:24:23.575Z,12.50
2022-08-26T15:26:50.777Z,13.52
2022-08-26T15:29:18.433Z,14.05
2022-08-26T15:31:45.619Z,12.70
2022-08-26T15:34:16.753Z,12.50
2022-08-26T15:36:46.029Z,16.42
2022-08-26T15:39:17.738Z,13.82
2022-08-26T15:41:45.619Z,15.43
2022-08-26T15:44:14.381Z,11.73
2022-08-26T15:46:42.253Z,17.48
2022-08-26T15:49:12.060Z,12.10
2022-08-26T15:51:48.054Z,17.83
2022-08-26T15:54:16.766Z,13.27
2022-08-26T15:56:47.915Z,19.05
2022-08-26T15:59:15.517Z,20.98
2022-08-26T16:01:43.396Z,26.20
2022-08-26T16:04:11.564Z,21.58
2022-08-26T16:06:40.625Z,22.35
2022-08-26T16:09:08.300Z,24.55
2022-08-26T16:11:37.532Z,23.13
2022-08-26T16:14:06.035Z,19.42
2022-08-26T16:16:33.237Z,26.50
2022-08-26T16:19:04.293Z,23.40
2022-08-26T16:21:34.284Z,21.52
2022-08-26T16:24:01.552Z,22.83
2022-08-26T16:26:32.471Z,23.13
2022-08-26T16:29:01.994Z,21.50
2022-08-26T16:33:56.015Z,19.63
2022-08-26T16:36:23.166Z,22.00
2022-08-26T16:38:53.495Z,21.20
2022-08-26T16:41:24.580Z,20.08
2022-08-26T16:43:52.058Z,20.17
2022-08-26T16:46:19.598Z,24.80
2022-08-26T16:48:46.750Z,20.60
2022-08-26T16:51:18.729Z,25.50
2022-08-26T16:53:47.450Z,32.70
2022-08-26T16:56:16.796Z,28.38
2022-08-26T17:01:10.671Z,30.00
2022-08-26T17:03:37.895Z,37.95
2022-08-26T17:06:05.257Z,42.38
2022-08-26T17:08:32.295Z,37.85
2022-08-26T17:11:00.577Z,39.58
2022-08-26T17:13:35.906Z,30.23
2022-08-26T17:16:09.028Z,36.28
2022-08-26T17:18:36.248Z,40.17
2022-08-26T17:21:10.336Z,34.92
2022-08-26T17:23:38.471Z,36.38
2022-08-26T17:26:05.693Z,46.67
2022-08-26T17:28:33.671Z,39.58
2022-08-26T17:31:01.294Z,36.58
2022-08-26T17:33:29.117Z,35.05
2022-08-26T17:35:56.506Z,39.72
2022-08-26T17:38:24.195Z,38.40
2022-08-26T17:40:51.370Z,32.90
2022-08-26T17:43:19.006Z,32.72
2022-08-26T17:45:46.321Z,30.70
2022-08-26T17:48:13.366Z,38.55
2022-08-26T17:50:42.121Z,33.20
2022-08-26T17:53:19.606Z,42.03
2022-08-26T17:55:48.122Z,35.75
2022-08-26T17:58:19.992Z,38.85
2022-08-26T18:00:50.038Z,41.67
2022-08-26T18:03:18.455Z,38.70
2022-08-26T18:05:51.063Z,40.30
2022-08-26T18:08:18.827Z,38.42
2022-08-26T18:10:46.239Z,42.08
2022-08-26T18:13:14.971Z,39.08
2022-08-26T18:15:45.625Z,40.53
2022-08-26T18:18:14.515Z,46.97
2022-08-26T18:20:43.115Z,32.55
2022-08-26T18:23:11.782Z,37.33
2022-08-26T18:25:43.320Z,37.60
2022-08-26T18:28:10.536Z,44.72
2022-08-26T18:30:38.105Z,40.63
2022-08-26T18:33:05.249Z,44.30
2022-08-26T18:36:01.381Z,35.95
2022-08-26T18:38:30.469Z,38.33
2022-08-26T18:40:59.255Z,39.25
2022-08-26T18:43:26.574Z,33.05
2022-08-26T18:46:02.665Z,34.63
2022-08-26T18:48:29.733Z,36.25
2022-08-26T18:51:00.106Z,26.55
2022-08-26T18:53:28.163Z,26.40
2022-08-26T18:55:55.606Z,23.73
2022-08-26T18:58:22.579Z,32.05
2022-08-26T19:00:49.723Z,31.08
2022-08-26T19:03:19.030Z,29.98
2022-08-26T19:05:46.125Z,31.65
2022-08-26T19:08:13.179Z,22.88
2022-08-26T19:10:41.533Z,26.48
2022-08-26T19:13:09.833Z,45.45
2022-08-26T19:15:40.487Z,54.15
2022-08-26T19:18:08.997Z,51.58
2022-08-26T19:20:44.752Z,51.53
2022-08-26T19:23:31.064Z,49.75
2022-08-26T19:26:03.606Z,42.95
2022-08-26T19:28:31.638Z,25.95
2022-08-26T19:30:59.850Z,48.47
2022-08-26T19:33:28.369Z,39.40
2022-08-26T19:35:55.808Z,49.25
2022-08-26T19:38:23.675Z,43.88
2022-08-26T19:40:50.835Z,44.60
2022-08-26T19:43:17.965Z,36.58
2022-08-26T19:45:46.538Z,40.42
2022-08-26T19:48:13.637Z,46.55
2022-08-26T19:50:40.725Z,51.00
2022-08-26T19:53:10.372Z,53.60
2022-08-26T19:55:37.757Z,59.38
2022-08-26T19:58:04.686Z,62.67
2022-08-26T20:00:32.014Z,63.75
2022-08-26T20:02:59.758Z,56.75
2022-08-26T20:05:26.942Z,45.47
2022-08-26T20:07:54.252Z,57.20
2022-08-26T20:10:23.695Z,55.53
2022-08-26T20:15:21.758Z,71.90
2022-08-26T20:17:49.415Z,64.18
2022-08-26T20:20:34.948Z,69.53
2022-08-26T20:23:04.465Z,70.82
2022-08-26T20:25:32.942Z,69.40
2022-08-26T20:28:00.889Z,63.83
2022-08-26T20:30:27.842Z,74.47
2022-08-26T20:32:55.330Z,48.20
2022-08-26T20:35:24.032Z,49.05
2022-08-26T20:37:51.117Z,55.27
2022-08-26T20:40:18.147Z,71.03
2022-08-26T20:42:45.726Z,63.13
2022-08-26T20:45:12.731Z,64.30
2022-08-26T20:47:39.743Z,60.80
2022-08-26T20:50:08.698Z,75.80
2022-08-26T20:52:35.936Z,72.40
2022-08-26T20:55:02.966Z,71.68
2022-08-26T20:57:30.502Z,77.72
2022-08-26T20:59:57.800Z,92.95
2022-08-26T21:02:27.856Z,94.07
2022-08-26T21:04:55.278Z,97.90
2022-08-26T21:07:22.431Z,81.53
2022-08-26T21:09:49.624Z,83.38
2022-08-26T21:12:18.655Z,93.65
2022-08-26T21:14:49.500Z,107.57
2022-08-26T21:17:16.798Z,97.30
2022-08-26T21:19:45.785Z,92.45
2022-08-26T21:22:14.139Z,88.10
2022-08-26T21:24:42.724Z,105.65
2022-08-26T21:27:09.779Z,107.20
2022-08-26T21:29:37.605Z,97.55
2022-08-26T21:32:07.553Z,66.65
2022-08-26T21:34:34.633Z,86.03
2022-08-26T21:37:01.849Z,88.97
2022-08-26T21:39:32.979Z,100.10
2022-08-26T21:41:59.866Z,98.80
2022-08-26T21:44:27.925Z,105.30
2022-08-26T21:46:57.222Z,61.92
2022-08-26T21:49:24.176Z,70.28
2022-08-26T21:51:55.812Z,58.67
2022-08-26T21:54:23.053Z,67.68
2022-08-26T21:56:50.964Z,66.32
2022-08-26T21:59:19.125Z,81.22
2022-08-26T22:01:47.084Z,69.55
2022-08-26T22:04:14.956Z,81.38
2022-08-26T22:06:45.843Z,84.97
2022-08-26T22:09:14.784Z,103.35
2022-08-26T22:11:42.245Z,90.55
2022-08-26T22:14:10.198Z,100.28
2022-08-26T22:16:37.785Z,99.80
2022-08-26T22:19:04.913Z,81.75
2022-08-26T22:21:33.542Z,83.30
2022-08-26T22:24:00.616Z,74.30
2022-08-26T22:26:32.086Z,73.25
2022-08-26T22:29:00.694Z,65.97
2022-08-26T22:31:37.304Z,67.47
2022-08-26T22:34:17.273Z,75.45
2022-08-26T22:36:46.986Z,75.65
2022-08-26T22:39:15.706Z,71.20
2022-08-26T22:41:44.145Z,77.22
2022-08-26T22:44:12.468Z,73.50
2022-08-26T22:46:40.894Z,80.63
2022-08-26T22:49:09.627Z,81.78
2022-08-26T22:51:36.821Z,92.75
2022-08-26T22:54:04.793Z,86.63
2022-08-26T22:56:31.897Z,90.75
2022-08-26T22:58:59.189Z,84.00
2022-08-26T23:01:26.797Z,87.68
2022-08-26T23:03:53.969Z,93.78
2022-08-26T23:06:21.667Z,85.15
2022-08-26T23:08:49.467Z,90.10
2022-08-26T23:11:16.513Z,89.43
2022-08-26T23:13:43.767Z,91.82
2022-08-26T23:16:12.963Z,86.60
2022-08-26T23:18:41.454Z,88.65
2022-08-26T23:21:09.283Z,79.65
2022-08-26T23:23:38.091Z,87.10
2022-08-26T23:26:07.826Z,87.00
2022-08-26T23:28:38.575Z,84.25
2022-08-26T23:31:06.770Z,79.03
2022-08-26T23:33:52.235Z,77.50
2022-08-26T23:36:22.784Z,74.78
2022-08-26T23:38:53.091Z,79.63
2022-08-26T23:41:23.065Z,75.72
2022-08-26T23:43:51.657Z,82.63
2022-08-26T23:46:19.368Z,103.43
2022-08-26T23:48:47.036Z,100.40
2022-08-26T23:51:32.462Z,81.68
2022-08-26T23:54:00.054Z,88.05
2022-08-26T23:56:27.118Z,80.80
2022-08-26T23:58:54.932Z,80.13
